sensor_id;sensor_type;location;lat;lon;timestamp;temperature;humidity
820;DHT22;392;48.838;2.322;2024-02-23T00:00:25;7.40;47.50
820;DHT22;392;48.838;2.322;2024-02-23T00:02:52;7.30;47.50
820;DHT22;392;48.838;2.322;2024-02-23T00:05:22;7.30;47.70
820;DHT22;392;48.838;2.322;2024-02-23T00:07:49;7.30;47.90
820;DHT22;392;48.838;2.322;2024-02-23T00:10:16;7.30;47.90
820;DHT22;392;48.838;2.322;2024-02-23T00:12:43;7.30;48.10
820;DHT22;392;48.838;2.322;2024-02-23T00:15:14;7.30;48.20
820;DHT22;392;48.838;2.322;2024-02-23T00:17:42;7.30;48.20
820;DHT22;392;48.838;2.322;2024-02-23T00:20:10;7.30;48.20
820;DHT22;392;48.838;2.322;2024-02-23T00:22:38;7.20;48.10
820;DHT22;392;48.838;2.322;2024-02-23T00:25:05;7.20;48.40
820;DHT22;392;48.838;2.322;2024-02-23T00:27:33;7.20;48.70
820;DHT22;392;48.838;2.322;2024-02-23T00:30:00;7.20;48.70
820;DHT22;392;48.838;2.322;2024-02-23T00:32:29;7.10;48.50
820;DHT22;392;48.838;2.322;2024-02-23T00:34:57;7.10;48.90
820;DHT22;392;48.838;2.322;2024-02-23T00:37:24;7.10;49.30
820;DHT22;392;48.838;2.322;2024-02-23T00:39:51;7.10;49.40
820;DHT22;392;48.838;2.322;2024-02-23T00:42:18;7.10;49.50
820;DHT22;392;48.838;2.322;2024-02-23T00:44:47;7.10;49.60
820;DHT22;392;48.838;2.322;2024-02-23T00:47:14;7.10;49.70
820;DHT22;392;48.838;2.322;2024-02-23T00:49:43;7.10;50.30
820;DHT22;392;48.838;2.322;2024-02-23T00:52:10;7.10;50.70
820;DHT22;392;48.838;2.322;2024-02-23T00:54:37;7.10;50.90
820;DHT22;392;48.838;2.322;2024-02-23T00:57:05;7.10;51.00
820;DHT22;392;48.838;2.322;2024-02-23T00:59:32;7.00;51.00
820;DHT22;392;48.838;2.322;2024-02-23T01:01:59;7.00;51.80
820;DHT22;392;48.838;2.322;2024-02-23T01:04:26;7.00;52.00
820;DHT22;392;48.838;2.322;2024-02-23T01:06:55;7.00;52.20
820;DHT22;392;48.838;2.322;2024-02-23T01:09:22;7.00;52.70
820;DHT22;392;48.838;2.322;2024-02-23T01:11:49;6.90;52.90
820;DHT22;392;48.838;2.322;2024-02-23T01:14:17;6.90;53.40
820;DHT22;392;48.838;2.322;2024-02-23T01:16:44;6.90;53.90
820;DHT22;392;48.838;2.322;2024-02-23T01:19:11;6.90;54.10
820;DHT22;392;48.838;2.322;2024-02-23T01:21:39;6.90;54.40
820;DHT22;392;48.838;2.322;2024-02-23T01:24:07;6.90;55.00
820;DHT22;392;48.838;2.322;2024-02-23T01:26:34;6.90;55.40
820;DHT22;392;48.838;2.322;2024-02-23T01:29:02;6.90;55.70
820;DHT22;392;48.838;2.322;2024-02-23T01:31:30;6.90;55.90
820;DHT22;392;48.838;2.322;2024-02-23T01:33:57;6.90;56.10
820;DHT22;392;48.838;2.322;2024-02-23T01:36:24;6.90;56.30
820;DHT22;392;48.838;2.322;2024-02-23T01:38:51;6.90;56.50
820;DHT22;392;48.838;2.322;2024-02-23T01:41:20;6.90;56.30
820;DHT22;392;48.838;2.322;2024-02-23T01:43:47;6.90;56.40
820;DHT22;392;48.838;2.322;2024-02-23T01:46:15;6.90;56.60
820;DHT22;392;48.838;2.322;2024-02-23T01:48:45;6.90;56.60
820;DHT22;392;48.838;2.322;2024-02-23T01:51:12;6.90;56.60
820;DHT22;392;48.838;2.322;2024-02-23T01:53:40;6.90;56.60
820;DHT22;392;48.838;2.322;2024-02-23T01:56:08;6.90;56.60
820;DHT22;392;48.838;2.322;2024-02-23T01:58:40;6.80;56.40
820;DHT22;392;48.838;2.322;2024-02-23T02:01:07;6.80;56.20
820;DHT22;392;48.838;2.322;2024-02-23T02:03:35;6.80;56.60
820;DHT22;392;48.838;2.322;2024-02-23T02:06:04;6.80;56.50
820;DHT22;392;48.838;2.322;2024-02-23T02:08:33;6.80;56.50
820;DHT22;392;48.838;2.322;2024-02-23T02:11:00;6.80;56.60
820;DHT22;392;48.838;2.322;2024-02-23T02:13:28;6.80;56.80
820;DHT22;392;48.838;2.322;2024-02-23T02:15:57;6.80;57.10
820;DHT22;392;48.838;2.322;2024-02-23T02:18:25;6.80;56.50
820;DHT22;392;48.838;2.322;2024-02-23T02:20:55;6.80;56.50
820;DHT22;392;48.838;2.322;2024-02-23T02:23:23;6.80;56.50
820;DHT22;392;48.838;2.322;2024-02-23T02:25:53;6.80;56.60
820;DHT22;392;48.838;2.322;2024-02-23T02:28:21;6.80;56.50
820;DHT22;392;48.838;2.322;2024-02-23T02:30:48;6.80;56.50
820;DHT22;392;48.838;2.322;2024-02-23T02:33:17;6.80;56.50
820;DHT22;392;48.838;2.322;2024-02-23T02:35:44;6.80;56.50
820;DHT22;392;48.838;2.322;2024-02-23T02:38:11;6.80;56.60
820;DHT22;392;48.838;2.322;2024-02-23T02:40:38;6.80;56.50
820;DHT22;392;48.838;2.322;2024-02-23T02:43:06;6.80;56.50
820;DHT22;392;48.838;2.322;2024-02-23T02:45:34;6.80;56.50
820;DHT22;392;48.838;2.322;2024-02-23T02:48:02;6.90;56.60
820;DHT22;392;48.838;2.322;2024-02-23T02:50:31;6.90;56.70
820;DHT22;392;48.838;2.322;2024-02-23T02:52:58;6.90;56.60
820;DHT22;392;48.838;2.322;2024-02-23T02:55:25;6.90;56.60
820;DHT22;392;48.838;2.322;2024-02-23T02:57:52;6.90;56.60
820;DHT22;392;48.838;2.322;2024-02-23T03:00:20;6.90;56.60
820;DHT22;392;48.838;2.322;2024-02-23T03:02:47;6.90;56.20
820;DHT22;392;48.838;2.322;2024-02-23T03:05:14;6.90;55.90
820;DHT22;392;48.838;2.322;2024-02-23T03:07:43;6.80;56.00
820;DHT22;392;48.838;2.322;2024-02-23T03:10:10;6.80;56.50
820;DHT22;392;48.838;2.322;2024-02-23T03:12:37;6.90;56.50
820;DHT22;392;48.838;2.322;2024-02-23T03:15:05;6.90;56.50
820;DHT22;392;48.838;2.322;2024-02-23T03:17:33;6.80;55.80
820;DHT22;392;48.838;2.322;2024-02-23T03:20:00;6.90;55.90
820;DHT22;392;48.838;2.322;2024-02-23T03:22:27;6.80;55.70
820;DHT22;392;48.838;2.322;2024-02-23T03:24:56;6.80;55.60
820;DHT22;392;48.838;2.322;2024-02-23T03:27:28;6.80;55.50
820;DHT22;392;48.838;2.322;2024-02-23T03:29:56;6.80;55.60
820;DHT22;392;48.838;2.322;2024-02-23T03:32:23;6.80;55.80
820;DHT22;392;48.838;2.322;2024-02-23T03:34:52;6.80;56.00
820;DHT22;392;48.838;2.322;2024-02-23T03:37:19;6.80;56.00
820;DHT22;392;48.838;2.322;2024-02-23T03:39:46;6.80;56.50
820;DHT22;392;48.838;2.322;2024-02-23T03:42:15;6.70;56.50
820;DHT22;392;48.838;2.322;2024-02-23T03:44:42;6.70;56.50
820;DHT22;392;48.838;2.322;2024-02-23T03:47:09;6.70;56.50
820;DHT22;392;48.838;2.322;2024-02-23T03:49:37;6.70;56.50
820;DHT22;392;48.838;2.322;2024-02-23T03:52:05;6.70;56.60
820;DHT22;392;48.838;2.322;2024-02-23T03:54:32;6.70;56.90
820;DHT22;392;48.838;2.322;2024-02-23T03:56:59;6.70;56.80
820;DHT22;392;48.838;2.322;2024-02-23T03:59:28;6.70;57.10
820;DHT22;392;48.838;2.322;2024-02-23T04:01:55;6.70;57.10
820;DHT22;392;48.838;2.322;2024-02-23T04:04:22;6.70;57.20
820;DHT22;392;48.838;2.322;2024-02-23T04:06:50;6.70;57.50
820;DHT22;392;48.838;2.322;2024-02-23T04:09:17;6.60;57.60
820;DHT22;392;48.838;2.322;2024-02-23T04:11:47;6.60;57.60
820;DHT22;392;48.838;2.322;2024-02-23T04:14:14;6.60;58.00
820;DHT22;392;48.838;2.322;2024-02-23T04:16:43;6.60;58.20
820;DHT22;392;48.838;2.322;2024-02-23T04:19:10;6.60;58.50
820;DHT22;392;48.838;2.322;2024-02-23T04:21:37;6.60;58.70
820;DHT22;392;48.838;2.322;2024-02-23T04:24:05;6.50;58.70
820;DHT22;392;48.838;2.322;2024-02-23T04:26:34;6.50;58.90
820;DHT22;392;48.838;2.322;2024-02-23T04:29:01;6.60;59.20
820;DHT22;392;48.838;2.322;2024-02-23T04:31:28;6.60;59.20
820;DHT22;392;48.838;2.322;2024-02-23T04:33:57;6.60;59.10
820;DHT22;392;48.838;2.322;2024-02-23T04:36:24;6.60;59.00
820;DHT22;392;48.838;2.322;2024-02-23T04:38:51;6.60;58.90
820;DHT22;392;48.838;2.322;2024-02-23T04:41:20;6.70;58.90
820;DHT22;392;48.838;2.322;2024-02-23T04:43:48;6.70;58.80
820;DHT22;392;48.838;2.322;2024-02-23T04:46:15;6.70;58.60
820;DHT22;392;48.838;2.322;2024-02-23T04:48:42;6.70;58.40
820;DHT22;392;48.838;2.322;2024-02-23T04:51:11;6.70;58.20
820;DHT22;392;48.838;2.322;2024-02-23T04:53:38;6.70;57.90
820;DHT22;392;48.838;2.322;2024-02-23T04:56:05;6.70;58.00
820;DHT22;392;48.838;2.322;2024-02-23T04:58:33;6.80;58.10
820;DHT22;392;48.838;2.322;2024-02-23T05:01:00;6.80;57.80
820;DHT22;392;48.838;2.322;2024-02-23T05:03:29;6.80;57.80
820;DHT22;392;48.838;2.322;2024-02-23T05:05:56;6.70;57.60
820;DHT22;392;48.838;2.322;2024-02-23T05:08:25;6.70;57.60
820;DHT22;392;48.838;2.322;2024-02-23T05:10:53;6.70;57.80
820;DHT22;392;48.838;2.322;2024-02-23T05:13:20;6.60;58.00
820;DHT22;392;48.838;2.322;2024-02-23T05:15:47;6.60;58.20
820;DHT22;392;48.838;2.322;2024-02-23T05:18:15;6.60;58.60
820;DHT22;392;48.838;2.322;2024-02-23T05:20:42;6.60;59.70
820;DHT22;392;48.838;2.322;2024-02-23T05:23:10;6.60;58.60
820;DHT22;392;48.838;2.322;2024-02-23T05:25:38;6.50;58.70
820;DHT22;392;48.838;2.322;2024-02-23T05:28:05;6.50;58.90
820;DHT22;392;48.838;2.322;2024-02-23T05:30:33;6.50;59.30
820;DHT22;392;48.838;2.322;2024-02-23T05:33:00;6.50;59.50
820;DHT22;392;48.838;2.322;2024-02-23T05:35:29;6.50;59.80
820;DHT22;392;48.838;2.322;2024-02-23T05:37:56;6.50;59.90
820;DHT22;392;48.838;2.322;2024-02-23T05:40:23;6.60;60.20
820;DHT22;392;48.838;2.322;2024-02-23T05:42:51;6.60;60.10
820;DHT22;392;48.838;2.322;2024-02-23T05:45:20;6.60;60.00
820;DHT22;392;48.838;2.322;2024-02-23T05:47:48;6.60;59.80
820;DHT22;392;48.838;2.322;2024-02-23T05:50:15;6.60;59.90
820;DHT22;392;48.838;2.322;2024-02-23T05:52:43;6.60;59.80
820;DHT22;392;48.838;2.322;2024-02-23T05:55:10;6.60;59.40
820;DHT22;392;48.838;2.322;2024-02-23T05:57:37;6.60;59.30
820;DHT22;392;48.838;2.322;2024-02-23T06:00:07;6.60;59.70
820;DHT22;392;48.838;2.322;2024-02-23T06:02:38;6.60;59.80
820;DHT22;392;48.838;2.322;2024-02-23T06:05:06;6.60;59.50
820;DHT22;392;48.838;2.322;2024-02-23T06:07:34;6.60;59.20
820;DHT22;392;48.838;2.322;2024-02-23T06:10:02;6.60;59.00
820;DHT22;392;48.838;2.322;2024-02-23T06:12:30;6.60;58.60
820;DHT22;392;48.838;2.322;2024-02-23T06:14:58;6.60;58.80
820;DHT22;392;48.838;2.322;2024-02-23T06:17:26;6.60;58.80
820;DHT22;392;48.838;2.322;2024-02-23T06:19:53;6.60;58.80
820;DHT22;392;48.838;2.322;2024-02-23T06:22:23;6.50;59.00
820;DHT22;392;48.838;2.322;2024-02-23T06:24:51;6.50;59.40
820;DHT22;392;48.838;2.322;2024-02-23T06:27:18;6.50;59.70
820;DHT22;392;48.838;2.322;2024-02-23T06:29:48;6.60;59.70
820;DHT22;392;48.838;2.322;2024-02-23T06:32:15;6.60;59.50
820;DHT22;392;48.838;2.322;2024-02-23T06:34:44;6.50;59.30
820;DHT22;392;48.838;2.322;2024-02-23T06:37:12;6.50;59.30
820;DHT22;392;48.838;2.322;2024-02-23T06:39:39;6.50;59.50
820;DHT22;392;48.838;2.322;2024-02-23T06:42:07;6.50;59.40
820;DHT22;392;48.838;2.322;2024-02-23T06:44:34;6.50;59.40
820;DHT22;392;48.838;2.322;2024-02-23T06:47:01;6.50;59.60
820;DHT22;392;48.838;2.322;2024-02-23T06:49:29;6.60;59.70
820;DHT22;392;48.838;2.322;2024-02-23T06:51:57;6.60;59.50
820;DHT22;392;48.838;2.322;2024-02-23T06:54:24;6.60;59.80
820;DHT22;392;48.838;2.322;2024-02-23T06:56:52;6.60;59.70
820;DHT22;392;48.838;2.322;2024-02-23T06:59:19;6.60;59.70
820;DHT22;392;48.838;2.322;2024-02-23T07:01:49;6.50;59.70
820;DHT22;392;48.838;2.322;2024-02-23T07:04:17;6.60;60.20
820;DHT22;392;48.838;2.322;2024-02-23T07:06:44;6.60;59.80
820;DHT22;392;48.838;2.322;2024-02-23T07:09:13;6.60;60.40
820;DHT22;392;48.838;2.322;2024-02-23T07:11:40;6.60;60.30
820;DHT22;392;48.838;2.322;2024-02-23T07:14:09;6.60;60.30
820;DHT22;392;48.838;2.322;2024-02-23T07:16:38;6.60;60.10
820;DHT22;392;48.838;2.322;2024-02-23T07:19:06;6.70;60.30
820;DHT22;392;48.838;2.322;2024-02-23T07:21:34;6.70;60.40
820;DHT22;392;48.838;2.322;2024-02-23T07:24:01;6.80;59.90
820;DHT22;392;48.838;2.322;2024-02-23T07:26:30;6.80;59.60
820;DHT22;392;48.838;2.322;2024-02-23T07:28:57;6.80;59.70
820;DHT22;392;48.838;2.322;2024-02-23T07:31:24;6.90;60.10
820;DHT22;392;48.838;2.322;2024-02-23T07:33:51;6.90;60.10
820;DHT22;392;48.838;2.322;2024-02-23T07:36:19;7.00;59.80
820;DHT22;392;48.838;2.322;2024-02-23T07:38:47;7.00;58.60
820;DHT22;392;48.838;2.322;2024-02-23T07:41:15;7.00;58.70
820;DHT22;392;48.838;2.322;2024-02-23T07:43:44;7.00;58.70
820;DHT22;392;48.838;2.322;2024-02-23T07:46:12;7.00;58.30
820;DHT22;392;48.838;2.322;2024-02-23T07:48:39;7.00;58.50
820;DHT22;392;48.838;2.322;2024-02-23T07:51:06;7.10;58.90
820;DHT22;392;48.838;2.322;2024-02-23T07:53:34;7.10;59.20
820;DHT22;392;48.838;2.322;2024-02-23T07:56:02;7.20;58.70
820;DHT22;392;48.838;2.322;2024-02-23T07:58:30;7.20;59.00
820;DHT22;392;48.838;2.322;2024-02-23T08:00:58;7.30;58.30
820;DHT22;392;48.838;2.322;2024-02-23T08:03:26;7.30;57.60
820;DHT22;392;48.838;2.322;2024-02-23T08:05:53;7.30;57.00
820;DHT22;392;48.838;2.322;2024-02-23T08:08:20;7.20;56.90
820;DHT22;392;48.838;2.322;2024-02-23T08:10:49;7.20;56.90
820;DHT22;392;48.838;2.322;2024-02-23T08:13:17;7.20;57.30
820;DHT22;392;48.838;2.322;2024-02-23T08:16:04;7.20;57.40
820;DHT22;392;48.838;2.322;2024-02-23T08:18:32;7.20;57.60
820;DHT22;392;48.838;2.322;2024-02-23T08:20:59;7.20;57.90
820;DHT22;392;48.838;2.322;2024-02-23T08:23:28;7.20;58.40
820;DHT22;392;48.838;2.322;2024-02-23T08:25:55;7.20;58.20
820;DHT22;392;48.838;2.322;2024-02-23T08:28:24;7.20;57.70
820;DHT22;392;48.838;2.322;2024-02-23T08:30:51;7.20;57.40
820;DHT22;392;48.838;2.322;2024-02-23T08:33:20;7.30;58.40
820;DHT22;392;48.838;2.322;2024-02-23T08:35:47;7.40;58.80
820;DHT22;392;48.838;2.322;2024-02-23T08:38:15;7.50;57.90
820;DHT22;392;48.838;2.322;2024-02-23T08:40:43;7.60;57.30
820;DHT22;392;48.838;2.322;2024-02-23T08:43:11;7.70;56.00
820;DHT22;392;48.838;2.322;2024-02-23T08:45:38;7.80;55.00
820;DHT22;392;48.838;2.322;2024-02-23T08:48:06;7.80;54.20
820;DHT22;392;48.838;2.322;2024-02-23T08:50:35;7.90;54.20
820;DHT22;392;48.838;2.322;2024-02-23T08:53:04;8.00;53.70
820;DHT22;392;48.838;2.322;2024-02-23T08:55:31;8.00;52.50
820;DHT22;392;48.838;2.322;2024-02-23T08:57:59;8.10;52.40
820;DHT22;392;48.838;2.322;2024-02-23T09:00:26;8.10;52.30
820;DHT22;392;48.838;2.322;2024-02-23T09:02:53;8.20;52.00
820;DHT22;392;48.838;2.322;2024-02-23T09:05:20;8.20;52.00
820;DHT22;392;48.838;2.322;2024-02-23T09:07:49;8.30;51.40
820;DHT22;392;48.838;2.322;2024-02-23T09:10:16;8.40;51.60
820;DHT22;392;48.838;2.322;2024-02-23T09:12:43;8.50;51.50
820;DHT22;392;48.838;2.322;2024-02-23T09:15:11;8.60;50.30
820;DHT22;392;48.838;2.322;2024-02-23T09:17:40;8.60;48.80
820;DHT22;392;48.838;2.322;2024-02-23T09:20:08;8.60;48.90
820;DHT22;392;48.838;2.322;2024-02-23T09:22:36;8.70;48.70
820;DHT22;392;48.838;2.322;2024-02-23T09:25:07;8.70;48.70
820;DHT22;392;48.838;2.322;2024-02-23T09:27:35;8.80;49.00
820;DHT22;392;48.838;2.322;2024-02-23T09:30:10;8.80;48.40
820;DHT22;392;48.838;2.322;2024-02-23T09:32:38;8.90;48.40
820;DHT22;392;48.838;2.322;2024-02-23T09:35:06;8.90;48.80
820;DHT22;392;48.838;2.322;2024-02-23T09:37:34;9.00;48.50
820;DHT22;392;48.838;2.322;2024-02-23T09:40:01;9.00;48.00
820;DHT22;392;48.838;2.322;2024-02-23T09:42:29;9.10;47.50
820;DHT22;392;48.838;2.322;2024-02-23T09:44:59;9.10;47.40
820;DHT22;392;48.838;2.322;2024-02-23T09:47:27;9.10;47.80
820;DHT22;392;48.838;2.322;2024-02-23T09:49:55;9.10;48.20
820;DHT22;392;48.838;2.322;2024-02-23T09:52:22;9.20;48.20
820;DHT22;392;48.838;2.322;2024-02-23T09:54:50;9.20;47.10
820;DHT22;392;48.838;2.322;2024-02-23T09:57:17;9.20;47.00
820;DHT22;392;48.838;2.322;2024-02-23T09:59:46;9.20;47.30
820;DHT22;392;48.838;2.322;2024-02-23T10:02:16;9.30;47.70
820;DHT22;392;48.838;2.322;2024-02-23T10:04:44;9.40;46.90
820;DHT22;392;48.838;2.322;2024-02-23T10:07:14;9.40;45.60
820;DHT22;392;48.838;2.322;2024-02-23T10:09:42;9.40;44.60
820;DHT22;392;48.838;2.322;2024-02-23T10:12:09;9.30;44.60
820;DHT22;392;48.838;2.322;2024-02-23T10:14:36;9.20;45.10
820;DHT22;392;48.838;2.322;2024-02-23T10:17:06;9.30;46.90
820;DHT22;392;48.838;2.322;2024-02-23T10:19:34;9.30;46.30
820;DHT22;392;48.838;2.322;2024-02-23T10:22:01;9.40;45.50
820;DHT22;392;48.838;2.322;2024-02-23T10:24:28;9.50;45.40
820;DHT22;392;48.838;2.322;2024-02-23T10:26:55;9.60;44.60
820;DHT22;392;48.838;2.322;2024-02-23T10:29:23;9.70;44.00
820;DHT22;392;48.838;2.322;2024-02-23T10:31:51;9.90;43.40
820;DHT22;392;48.838;2.322;2024-02-23T10:34:20;10.00;41.20
820;DHT22;392;48.838;2.322;2024-02-23T10:36:47;10.00;39.90
820;DHT22;392;48.838;2.322;2024-02-23T10:39:17;10.00;39.70
820;DHT22;392;48.838;2.322;2024-02-23T10:41:48;9.90;39.90
820;DHT22;392;48.838;2.322;2024-02-23T10:44:20;9.70;39.70
820;DHT22;392;48.838;2.322;2024-02-23T10:46:49;9.60;41.30
820;DHT22;392;48.838;2.322;2024-02-23T10:49:17;9.40;43.30
820;DHT22;392;48.838;2.322;2024-02-23T10:51:49;9.10;46.60
820;DHT22;392;48.838;2.322;2024-02-23T10:54:19;8.80;48.80
820;DHT22;392;48.838;2.322;2024-02-23T10:56:49;8.60;51.70
820;DHT22;392;48.838;2.322;2024-02-23T10:59:17;8.30;54.20
820;DHT22;392;48.838;2.322;2024-02-23T11:01:47;8.20;57.80
820;DHT22;392;48.838;2.322;2024-02-23T11:04:16;8.20;60.70
820;DHT22;392;48.838;2.322;2024-02-23T11:06:50;8.20;62.10
820;DHT22;392;48.838;2.322;2024-02-23T11:09:21;8.40;66.80
820;DHT22;392;48.838;2.322;2024-02-23T11:11:53;8.70;67.40
820;DHT22;392;48.838;2.322;2024-02-23T11:14:29;9.00;65.20
820;DHT22;392;48.838;2.322;2024-02-23T11:16:58;9.30;60.40
820;DHT22;392;48.838;2.322;2024-02-23T11:19:32;9.40;57.60
820;DHT22;392;48.838;2.322;2024-02-23T11:22:03;9.40;55.30
820;DHT22;392;48.838;2.322;2024-02-23T11:24:31;9.50;53.30
820;DHT22;392;48.838;2.322;2024-02-23T11:27:00;9.50;53.70
820;DHT22;392;48.838;2.322;2024-02-23T11:29:34;9.70;53.70
820;DHT22;392;48.838;2.322;2024-02-23T11:32:12;10.00;48.80
820;DHT22;392;48.838;2.322;2024-02-23T11:34:40;10.20;45.50
820;DHT22;392;48.838;2.322;2024-02-23T11:37:09;10.30;42.20
820;DHT22;392;48.838;2.322;2024-02-23T11:39:37;10.30;41.70
820;DHT22;392;48.838;2.322;2024-02-23T11:42:06;10.30;40.60
820;DHT22;392;48.838;2.322;2024-02-23T11:44:34;10.20;40.00
820;DHT22;392;48.838;2.322;2024-02-23T11:47:02;10.20;41.50
820;DHT22;392;48.838;2.322;2024-02-23T11:49:30;10.30;42.00
820;DHT22;392;48.838;2.322;2024-02-23T11:51:57;10.50;40.50
820;DHT22;392;48.838;2.322;2024-02-23T11:54:26;10.50;39.40
820;DHT22;392;48.838;2.322;2024-02-23T11:56:53;10.50;39.40
820;DHT22;392;48.838;2.322;2024-02-23T11:59:20;10.60;39.50
820;DHT22;392;48.838;2.322;2024-02-23T12:01:49;10.70;39.10
820;DHT22;392;48.838;2.322;2024-02-23T12:04:16;10.70;37.90
820;DHT22;392;48.838;2.322;2024-02-23T12:06:44;10.70;38.70
820;DHT22;392;48.838;2.322;2024-02-23T12:09:13;10.70;37.70
820;DHT22;392;48.838;2.322;2024-02-23T12:11:42;10.90;36.80
820;DHT22;392;48.838;2.322;2024-02-23T12:14:10;11.00;35.10
820;DHT22;392;48.838;2.322;2024-02-23T12:16:40;11.00;32.50
820;DHT22;392;48.838;2.322;2024-02-23T12:19:08;11.00;30.90
820;DHT22;392;48.838;2.322;2024-02-23T12:21:35;10.80;30.40
820;DHT22;392;48.838;2.322;2024-02-23T12:24:04;10.80;31.10
820;DHT22;392;48.838;2.322;2024-02-23T12:26:33;10.80;31.30
820;DHT22;392;48.838;2.322;2024-02-23T12:29:02;10.90;30.60
820;DHT22;392;48.838;2.322;2024-02-23T12:31:31;10.80;30.20
820;DHT22;392;48.838;2.322;2024-02-23T12:33:59;10.80;31.40
820;DHT22;392;48.838;2.322;2024-02-23T12:36:28;11.00;32.20
820;DHT22;392;48.838;2.322;2024-02-23T12:38:56;11.20;32.90
820;DHT22;392;48.838;2.322;2024-02-23T12:41:23;11.50;31.90
820;DHT22;392;48.838;2.322;2024-02-23T12:43:50;11.60;30.40
820;DHT22;392;48.838;2.322;2024-02-23T12:46:20;11.70;30.20
820;DHT22;392;48.838;2.322;2024-02-23T12:48:49;11.60;30.00
820;DHT22;392;48.838;2.322;2024-02-23T12:51:16;11.60;30.10
820;DHT22;392;48.838;2.322;2024-02-23T12:53:44;11.50;30.30
820;DHT22;392;48.838;2.322;2024-02-23T12:56:13;11.50;30.20
820;DHT22;392;48.838;2.322;2024-02-23T12:58:43;11.40;29.60
820;DHT22;392;48.838;2.322;2024-02-23T13:01:11;11.50;32.30
820;DHT22;392;48.838;2.322;2024-02-23T13:03:40;12.00;28.20
820;DHT22;392;48.838;2.322;2024-02-23T13:06:07;12.10;26.90
820;DHT22;392;48.838;2.322;2024-02-23T13:08:35;12.20;28.50
820;DHT22;392;48.838;2.322;2024-02-23T13:11:02;12.30;26.20
820;DHT22;392;48.838;2.322;2024-02-23T13:13:29;12.50;28.80
820;DHT22;392;48.838;2.322;2024-02-23T13:15:57;13.60;27.70
820;DHT22;392;48.838;2.322;2024-02-23T13:18:24;14.80;23.00
820;DHT22;392;48.838;2.322;2024-02-23T13:20:53;15.70;21.40
820;DHT22;392;48.838;2.322;2024-02-23T13:23:20;16.60;19.20
820;DHT22;392;48.838;2.322;2024-02-23T13:25:47;17.20;17.90
820;DHT22;392;48.838;2.322;2024-02-23T13:28:15;17.50;16.50
820;DHT22;392;48.838;2.322;2024-02-23T13:30:42;17.50;15.90
820;DHT22;392;48.838;2.322;2024-02-23T13:33:11;17.90;15.60
820;DHT22;392;48.838;2.322;2024-02-23T13:35:38;18.30;14.80
820;DHT22;392;48.838;2.322;2024-02-23T13:38:07;18.40;14.50
820;DHT22;392;48.838;2.322;2024-02-23T13:40:34;18.70;13.60
820;DHT22;392;48.838;2.322;2024-02-23T13:43:02;18.80;13.10
820;DHT22;392;48.838;2.322;2024-02-23T13:45:29;19.10;12.20
820;DHT22;392;48.838;2.322;2024-02-23T13:47:57;19.40;11.80
820;DHT22;392;48.838;2.322;2024-02-23T13:50:25;19.60;11.70
820;DHT22;392;48.838;2.322;2024-02-23T13:52:53;19.50;10.70
820;DHT22;392;48.838;2.322;2024-02-23T13:55:22;19.00;11.00
820;DHT22;392;48.838;2.322;2024-02-23T13:57:50;18.20;11.20
820;DHT22;392;48.838;2.322;2024-02-23T14:00:18;17.00;12.40
820;DHT22;392;48.838;2.322;2024-02-23T14:02:46;16.00;13.90
820;DHT22;392;48.838;2.322;2024-02-23T14:05:14;15.30;15.40
820;DHT22;392;48.838;2.322;2024-02-23T14:07:43;14.60;16.40
820;DHT22;392;48.838;2.322;2024-02-23T14:10:11;14.00;17.80
820;DHT22;392;48.838;2.322;2024-02-23T14:12:39;13.60;19.00
820;DHT22;392;48.838;2.322;2024-02-23T14:15:08;13.20;20.20
820;DHT22;392;48.838;2.322;2024-02-23T14:17:36;12.80;21.30
820;DHT22;392;48.838;2.322;2024-02-23T14:20:04;12.50;22.70
820;DHT22;392;48.838;2.322;2024-02-23T14:22:32;12.10;23.80
820;DHT22;392;48.838;2.322;2024-02-23T14:25:00;11.80;25.80
820;DHT22;392;48.838;2.322;2024-02-23T14:27:27;11.60;27.40
820;DHT22;392;48.838;2.322;2024-02-23T14:29:55;11.50;29.50
820;DHT22;392;48.838;2.322;2024-02-23T14:32:22;11.40;31.40
820;DHT22;392;48.838;2.322;2024-02-23T14:34:50;11.40;32.20
820;DHT22;392;48.838;2.322;2024-02-23T14:37:17;11.30;29.40
820;DHT22;392;48.838;2.322;2024-02-23T14:39:44;11.20;28.50
820;DHT22;392;48.838;2.322;2024-02-23T14:42:11;11.10;28.20
820;DHT22;392;48.838;2.322;2024-02-23T14:44:38;11.00;28.00
820;DHT22;392;48.838;2.322;2024-02-23T14:47:07;10.90;27.90
820;DHT22;392;48.838;2.322;2024-02-23T14:49:34;10.90;27.40
820;DHT22;392;48.838;2.322;2024-02-23T14:52:01;10.70;27.70
820;DHT22;392;48.838;2.322;2024-02-23T14:54:28;10.60;28.60
820;DHT22;392;48.838;2.322;2024-02-23T14:56:56;10.60;29.00
820;DHT22;392;48.838;2.322;2024-02-23T14:59:23;10.50;29.50
820;DHT22;392;48.838;2.322;2024-02-23T15:01:51;10.40;30.00
820;DHT22;392;48.838;2.322;2024-02-23T15:04:19;10.40;30.30
820;DHT22;392;48.838;2.322;2024-02-23T15:06:46;10.30;31.50
820;DHT22;392;48.838;2.322;2024-02-23T15:09:14;10.10;32.90
820;DHT22;392;48.838;2.322;2024-02-23T15:11:41;10.00;36.80
820;DHT22;392;48.838;2.322;2024-02-23T15:14:08;10.20;41.70
820;DHT22;392;48.838;2.322;2024-02-23T15:16:35;10.30;42.70
820;DHT22;392;48.838;2.322;2024-02-23T15:19:02;10.50;42.00
820;DHT22;392;48.838;2.322;2024-02-23T15:21:31;10.60;40.50
820;DHT22;392;48.838;2.322;2024-02-23T15:23:58;10.50;38.60
820;DHT22;392;48.838;2.322;2024-02-23T15:26:25;10.50;37.60
820;DHT22;392;48.838;2.322;2024-02-23T15:28:53;10.40;37.40
820;DHT22;392;48.838;2.322;2024-02-23T15:31:20;10.40;36.40
820;DHT22;392;48.838;2.322;2024-02-23T15:33:48;10.40;35.40
820;DHT22;392;48.838;2.322;2024-02-23T15:36:15;10.30;34.80
820;DHT22;392;48.838;2.322;2024-02-23T15:38:43;10.30;34.80
820;DHT22;392;48.838;2.322;2024-02-23T15:41:12;10.20;35.20
820;DHT22;392;48.838;2.322;2024-02-23T15:43:39;10.20;35.10
820;DHT22;392;48.838;2.322;2024-02-23T15:46:06;10.20;35.30
820;DHT22;392;48.838;2.322;2024-02-23T15:48:33;10.20;36.00
820;DHT22;392;48.838;2.322;2024-02-23T15:51:01;10.20;36.20
820;DHT22;392;48.838;2.322;2024-02-23T15:53:29;10.20;36.10
820;DHT22;392;48.838;2.322;2024-02-23T15:55:57;10.20;35.70
820;DHT22;392;48.838;2.322;2024-02-23T15:58:24;10.20;35.30
820;DHT22;392;48.838;2.322;2024-02-23T16:00:52;10.20;35.40
820;DHT22;392;48.838;2.322;2024-02-23T16:03:19;10.20;35.10
820;DHT22;392;48.838;2.322;2024-02-23T16:05:48;10.20;34.20
820;DHT22;392;48.838;2.322;2024-02-23T16:08:15;10.20;34.20
820;DHT22;392;48.838;2.322;2024-02-23T16:10:42;10.20;34.10
820;DHT22;392;48.838;2.322;2024-02-23T16:13:11;10.20;34.10
820;DHT22;392;48.838;2.322;2024-02-23T16:15:38;10.30;34.20
820;DHT22;392;48.838;2.322;2024-02-23T16:18:05;10.30;34.20
820;DHT22;392;48.838;2.322;2024-02-23T16:20:33;10.40;34.30
820;DHT22;392;48.838;2.322;2024-02-23T16:23:00;10.40;34.30
820;DHT22;392;48.838;2.322;2024-02-23T16:25:28;10.40;34.30
820;DHT22;392;48.838;2.322;2024-02-23T16:27:55;10.40;34.30
820;DHT22;392;48.838;2.322;2024-02-23T16:30:24;10.40;33.10
820;DHT22;392;48.838;2.322;2024-02-23T16:32:52;10.40;33.50
820;DHT22;392;48.838;2.322;2024-02-23T16:35:19;10.40;33.00
820;DHT22;392;48.838;2.322;2024-02-23T16:37:47;10.30;32.30
820;DHT22;392;48.838;2.322;2024-02-23T16:40:19;10.30;32.20
820;DHT22;392;48.838;2.322;2024-02-23T16:42:49;10.30;32.30
820;DHT22;392;48.838;2.322;2024-02-23T16:45:16;10.30;31.40
820;DHT22;392;48.838;2.322;2024-02-23T16:47:45;10.20;31.00
820;DHT22;392;48.838;2.322;2024-02-23T16:50:12;10.20;30.70